createdAt,value
2022-10-09T00:00:13.700Z,82.39
2022-10-09T00:02:40.251Z,82.26
2022-10-09T00:05:07.070Z,82.60
2022-10-09T00:07:42.601Z,82.79
2022-10-09T00:10:09.257Z,82.91
2022-10-09T00:12:41.401Z,82.94
2022-10-09T00:15:08.149Z,82.86
2022-10-09T00:17:34.555Z,82.72
2022-10-09T00:20:00.983Z,82.56
2022-10-09T00:22:31.252Z,82.18
2022-10-09T00:24:57.657Z,82.32
2022-10-09T00:27:24.781Z,81.99
2022-10-09T00:29:51.453Z,82.10
2022-10-09T00:32:18.414Z,82.25
2022-10-09T00:34:53.870Z,82.56
2022-10-09T00:37:20.421Z,83.00
2022-10-09T00:39:49.514Z,82.62
2022-10-09T00:42:15.971Z,82.51
2022-10-09T00:44:58.183Z,82.55
2022-10-09T00:47:36.777Z,82.65
2022-10-09T00:50:40.255Z,82.90
2022-10-09T00:53:09.280Z,82.87
2022-10-09T00:55:37.797Z,82.85
2022-10-09T00:58:04.909Z,82.96
2022-10-09T01:00:31.464Z,83.00
2022-10-09T01:02:58.107Z,82.74
2022-10-09T01:05:52.001Z,83.35
2022-10-09T01:08:45.448Z,83.05
2022-10-09T01:11:21.097Z,83.20
2022-10-09T01:13:47.421Z,83.13
2022-10-09T01:16:35.963Z,83.11
2022-10-09T01:19:39.852Z,82.69
2022-10-09T01:23:04.153Z,83.14
2022-10-09T01:26:01.700Z,82.91
2022-10-09T01:28:30.397Z,82.70
2022-10-09T01:31:03.146Z,82.92
2022-10-09T01:33:31.617Z,82.98
2022-10-09T01:35:59.701Z,82.95
2022-10-09T01:38:28.873Z,83.00
2022-10-09T01:41:13.206Z,83.39
2022-10-09T01:43:45.528Z,83.12
2022-10-09T01:46:25.685Z,83.33
2022-10-09T01:49:29.734Z,83.22
2022-10-09T01:52:16.932Z,83.77
2022-10-09T01:55:08.367Z,83.68
2022-10-09T01:57:52.596Z,83.55
2022-10-09T02:00:19.476Z,83.53
2022-10-09T02:02:48.368Z,83.05
2022-10-09T02:05:23.365Z,83.14
2022-10-09T02:07:49.987Z,83.37
2022-10-09T02:10:18.672Z,82.79
2022-10-09T02:12:50.912Z,83.00
2022-10-09T02:15:17.837Z,83.11
2022-10-09T02:17:54.821Z,83.05
2022-10-09T02:20:30.236Z,83.32
2022-10-09T02:22:58.462Z,83.34
2022-10-09T02:25:25.026Z,83.32
2022-10-09T02:27:51.481Z,83.55
2022-10-09T02:30:20.159Z,83.40
2022-10-09T02:32:51.990Z,83.69
2022-10-09T02:35:18.622Z,83.73
2022-10-09T02:37:45.003Z,83.23
2022-10-09T02:40:11.406Z,83.43
2022-10-09T02:42:37.945Z,83.56
2022-10-09T02:45:05.031Z,83.44
2022-10-09T02:50:13.086Z,83.40
2022-10-09T02:52:39.638Z,83.91
2022-10-09T02:55:06.381Z,83.25
2022-10-09T02:57:32.902Z,84.05
2022-10-09T03:00:02.070Z,83.83
2022-10-09T03:02:28.545Z,83.80
2022-10-09T03:04:54.993Z,83.94
2022-10-09T03:07:21.372Z,83.41
2022-10-09T03:09:47.764Z,83.17
2022-10-09T03:12:16.184Z,83.32
2022-10-09T03:14:45.608Z,83.06
2022-10-09T03:17:12.300Z,83.10
2022-10-09T03:19:38.664Z,82.95
2022-10-09T03:22:05.092Z,83.36
2022-10-09T03:24:31.878Z,83.07
2022-10-09T03:27:07.233Z,83.15
2022-10-09T03:29:33.609Z,83.58
2022-10-09T03:32:00.115Z,83.71
2022-10-09T03:34:32.386Z,83.39
2022-10-09T03:36:58.741Z,83.16
2022-10-09T03:39:25.264Z,83.63
2022-10-09T03:41:51.624Z,83.38
2022-10-09T03:44:18.009Z,83.12
2022-10-09T03:46:44.422Z,83.02
2022-10-09T03:49:11.414Z,83.58
2022-10-09T03:51:37.960Z,83.44
2022-10-09T03:54:04.651Z,83.37
2022-10-09T03:56:31.229Z,83.40
2022-10-09T03:58:57.613Z,83.15
2022-10-09T04:01:24.379Z,82.95
2022-10-09T04:03:51.019Z,83.26
2022-10-09T04:06:17.449Z,83.45
2022-10-09T04:08:43.952Z,83.37
2022-10-09T04:11:10.316Z,83.33
2022-10-09T04:13:39.936Z,83.20
2022-10-09T04:16:06.754Z,83.19
2022-10-09T04:18:33.166Z,83.25
2022-10-09T04:20:59.719Z,83.46
2022-10-09T04:23:27.458Z,83.75
2022-10-09T04:25:54.920Z,83.47
2022-10-09T04:28:22.168Z,83.55
2022-10-09T04:30:48.693Z,83.34
2022-10-09T04:33:15.273Z,83.74
2022-10-09T04:35:45.634Z,83.38
2022-10-09T04:38:12.452Z,83.46
2022-10-09T04:40:38.874Z,83.56
2022-10-09T04:45:59.039Z,83.63
2022-10-09T04:48:25.954Z,83.65
2022-10-09T04:50:52.511Z,83.84
2022-10-09T04:53:18.893Z,83.64
2022-10-09T04:55:45.609Z,83.51
2022-10-09T04:58:13.092Z,83.08
2022-10-09T05:00:41.794Z,83.09
2022-10-09T05:03:08.776Z,83.13
2022-10-09T05:05:35.412Z,83.50
2022-10-09T05:08:02.096Z,83.19
2022-10-09T05:10:28.645Z,83.42
2022-10-09T05:12:55.074Z,83.39
2022-10-09T05:15:24.029Z,83.26
2022-10-09T05:17:50.947Z,83.06
2022-10-09T05:20:17.577Z,83.23
2022-10-09T05:22:44.783Z,83.47
2022-10-09T05:25:11.656Z,84.12
2022-10-09T05:27:38.215Z,83.74
2022-10-09T05:30:08.132Z,83.31
2022-10-09T05:32:34.699Z,83.41
2022-10-09T05:35:06.615Z,83.86
2022-10-09T05:37:33.009Z,83.76
2022-10-09T05:40:02.666Z,83.97
2022-10-09T05:42:29.560Z,83.96
2022-10-09T05:44:55.987Z,83.90
2022-10-09T05:47:30.572Z,83.65
2022-10-09T05:49:56.944Z,83.38
2022-10-09T05:52:23.543Z,83.26
2022-10-09T05:54:50.448Z,83.13
2022-10-09T05:57:16.828Z,83.24
2022-10-09T05:59:43.873Z,83.63
2022-10-09T06:02:10.438Z,83.21
2022-10-09T06:04:36.819Z,83.21
2022-10-09T06:07:03.319Z,83.36
2022-10-09T06:09:29.690Z,83.59
2022-10-09T06:11:56.144Z,83.36
2022-10-09T06:14:38.231Z,83.74
2022-10-09T06:17:07.813Z,83.67
2022-10-09T06:19:34.434Z,83.67
2022-10-09T06:22:09.943Z,84.17
2022-10-09T06:24:36.834Z,84.03
2022-10-09T06:27:03.589Z,83.70
2022-10-09T06:29:30.631Z,84.11
2022-10-09T06:31:57.206Z,83.87
2022-10-09T06:34:24.086Z,83.42
2022-10-09T06:36:50.718Z,83.59
2022-10-09T06:39:20.217Z,83.26
2022-10-09T06:41:49.601Z,83.40
2022-10-09T06:44:17.278Z,83.42
2022-10-09T06:46:48.563Z,83.13
2022-10-09T06:49:14.995Z,82.84
2022-10-09T06:51:49.998Z,81.61
2022-10-09T06:54:17.455Z,81.86
2022-10-09T06:56:53.032Z,82.00
2022-10-09T06:59:19.500Z,80.16
2022-10-09T07:01:45.911Z,80.34
2022-10-09T07:04:14.668Z,80.65
2022-10-09T07:06:43.955Z,80.84
2022-10-09T07:09:12.559Z,80.43
2022-10-09T07:11:49.202Z,80.87
2022-10-09T07:14:16.311Z,79.96
2022-10-09T07:16:45.960Z,77.34
2022-10-09T07:19:13.687Z,76.37
2022-10-09T07:21:42.954Z,75.70
2022-10-09T07:24:11.097Z,74.80
2022-10-09T07:26:40.037Z,75.73
2022-10-09T07:29:09.167Z,77.69
2022-10-09T07:31:42.924Z,78.85
2022-10-09T07:34:09.638Z,77.78
2022-10-09T07:36:36.305Z,76.67
2022-10-09T07:39:09.222Z,73.67
2022-10-09T07:41:35.709Z,70.71
2022-10-09T07:44:02.646Z,61.68
2022-10-09T07:46:33.273Z,54.46
2022-10-09T07:49:01.244Z,49.33
2022-10-09T07:51:35.597Z,45.25
2022-10-09T07:54:02.762Z,43.57
2022-10-09T07:56:31.961Z,40.81
2022-10-09T07:59:00.596Z,39.32
2022-10-09T08:01:28.344Z,39.51
2022-10-09T08:03:55.471Z,40.62
2022-10-09T08:06:22.257Z,43.53
2022-10-09T08:08:53.588Z,47.47
2022-10-09T08:11:30.373Z,48.48
2022-10-09T08:13:59.784Z,49.07
2022-10-09T08:19:31.836Z,46.55
2022-10-09T08:22:16.308Z,45.25
2022-10-09T08:24:51.693Z,42.39
2022-10-09T08:30:24.719Z,45.60
2022-10-09T08:32:54.006Z,46.23
2022-10-09T08:35:40.568Z,49.49
2022-10-09T08:38:07.293Z,49.01
2022-10-09T08:40:36.530Z,50.11
2022-10-09T08:43:06.641Z,50.69
2022-10-09T08:45:35.443Z,52.79
2022-10-09T08:48:26.547Z,53.04
2022-10-09T08:51:05.543Z,53.63
2022-10-09T08:53:34.732Z,54.47
2022-10-09T08:56:03.319Z,55.13
2022-10-09T08:58:43.800Z,52.61
2022-10-09T09:01:32.678Z,48.88
2022-10-09T09:04:37.690Z,47.50
2022-10-09T09:07:31.863Z,46.85
2022-10-09T09:10:14.760Z,44.59
2022-10-09T09:12:50.730Z,44.43
2022-10-09T09:15:45.048Z,43.49
2022-10-09T09:18:29.970Z,43.68
2022-10-09T09:21:04.997Z,46.91
2022-10-09T09:23:42.519Z,50.94
2022-10-09T09:26:21.735Z,53.26
2022-10-09T09:31:54.562Z,54.80
2022-10-09T09:34:55.909Z,56.95
2022-10-09T09:37:23.330Z,57.83
2022-10-09T09:40:36.332Z,58.21
2022-10-09T09:43:22.548Z,58.75
2022-10-09T09:46:16.985Z,58.95
2022-10-09T09:49:00.183Z,59.79
2022-10-09T09:51:36.048Z,59.68
2022-10-09T09:54:31.095Z,60.11
2022-10-09T09:57:17.079Z,60.35
2022-10-09T10:00:30.986Z,60.14
2022-10-09T10:03:17.080Z,61.29
2022-10-09T10:05:44.481Z,58.56
2022-10-09T10:08:41.873Z,59.23
2022-10-09T10:11:18.728Z,59.91
2022-10-09T10:13:54.503Z,59.62
2022-10-09T10:16:29.505Z,60.32
2022-10-09T10:22:42.695Z,60.82
2022-10-09T10:25:34.312Z,61.02
2022-10-09T10:28:22.779Z,61.78
2022-10-09T10:30:50.675Z,60.68
2022-10-09T10:33:47.005Z,60.10
2022-10-09T10:39:50.245Z,59.98
2022-10-09T10:43:03.429Z,60.02
2022-10-09T10:46:18.336Z,60.34
2022-10-09T10:48:53.995Z,59.66
2022-10-09T10:51:35.722Z,58.19
2022-10-09T10:54:17.825Z,58.59
2022-10-09T10:56:55.936Z,57.85
2022-10-09T11:00:00.536Z,57.36
2022-10-09T11:03:08.829Z,57.28
2022-10-09T11:06:27.510Z,56.13
2022-10-09T11:09:39.272Z,56.33
2022-10-09T11:12:50.603Z,52.62
2022-10-09T11:16:04.338Z,51.50
2022-10-09T11:22:47.061Z,53.71
2022-10-09T11:26:08.811Z,53.49
2022-10-09T11:28:57.201Z,52.74
2022-10-09T11:31:29.667Z,51.34
2022-10-09T11:34:46.849Z,51.89
2022-10-09T11:37:19.269Z,50.72
2022-10-09T11:39:46.432Z,49.39
2022-10-09T11:42:21.520Z,49.43
2022-10-09T11:45:24.475Z,49.92
2022-10-09T11:48:35.334Z,50.76
2022-10-09T11:54:44.045Z,49.72
2022-10-09T11:57:15.279Z,51.12
2022-10-09T11:59:48.187Z,50.23
2022-10-09T12:02:27.342Z,49.53
2022-10-09T12:04:55.381Z,49.33
2022-10-09T12:07:36.674Z,49.84
2022-10-09T12:10:20.354Z,49.01
2022-10-09T12:13:03.314Z,49.19
2022-10-09T12:15:54.860Z,49.69
2022-10-09T12:18:32.357Z,48.92
2022-10-09T12:21:23.226Z,49.35
2022-10-09T12:23:58.921Z,48.86
2022-10-09T12:26:31.553Z,49.71
2022-10-09T12:29:01.590Z,47.59
2022-10-09T12:31:51.162Z,49.14
2022-10-09T12:34:25.697Z,50.20
2022-10-09T12:37:02.695Z,49.40
2022-10-09T12:39:36.614Z,48.54
2022-10-09T12:42:04.386Z,49.38
2022-10-09T12:45:10.505Z,49.28
2022-10-09T12:47:45.741Z,49.31
2022-10-09T12:50:12.338Z,49.30
2022-10-09T12:52:59.788Z,49.50
2022-10-09T12:55:35.244Z,49.80
2022-10-09T12:58:21.416Z,50.27
2022-10-09T13:01:11.147Z,51.66
2022-10-09T13:03:55.032Z,51.15
2022-10-09T13:06:26.046Z,50.93
2022-10-09T13:08:56.384Z,50.64
2022-10-09T13:11:42.398Z,50.76
2022-10-09T13:14:50.996Z,50.63
2022-10-09T13:17:47.145Z,50.40
2022-10-09T13:20:32.568Z,50.93
2022-10-09T13:29:48.917Z,50.93
2022-10-09T13:32:24.452Z,50.74
2022-10-09T13:34:57.953Z,50.46
2022-10-09T13:37:41.209Z,50.21
2022-10-09T13:40:33.209Z,50.99
2022-10-09T13:43:06.283Z,50.38
2022-10-09T13:45:32.792Z,50.46
2022-10-09T13:48:03.117Z,50.87
2022-10-09T13:50:29.748Z,50.30
2022-10-09T13:53:14.057Z,50.69
2022-10-09T13:55:49.807Z,50.28
2022-10-09T13:58:16.362Z,50.04
2022-10-09T14:00:45.279Z,50.05
2022-10-09T14:03:11.701Z,50.35
2022-10-09T14:05:38.448Z,50.92
2022-10-09T14:08:05.608Z,50.33
2022-10-09T14:10:42.814Z,49.73
2022-10-09T14:15:53.039Z,50.20
2022-10-09T14:18:25.483Z,49.70
2022-10-09T14:20:59.136Z,50.35
2022-10-09T14:23:41.816Z,50.43
2022-10-09T14:26:08.227Z,48.96
2022-10-09T14:28:36.514Z,49.62
2022-10-09T14:31:07.148Z,49.32
2022-10-09T14:33:33.913Z,49.56
2022-10-09T14:36:15.183Z,49.98
2022-10-09T14:38:42.709Z,50.46
2022-10-09T14:41:09.757Z,50.83
2022-10-09T14:43:48.297Z,50.32
2022-10-09T14:46:17.098Z,50.00
2022-10-09T14:48:48.807Z,50.10
2022-10-09T14:51:18.018Z,50.86
2022-10-09T14:53:44.411Z,51.36
2022-10-09T14:56:13.689Z,50.11
2022-10-09T14:58:46.823Z,50.71
2022-10-09T15:01:26.062Z,50.80
2022-10-09T15:15:25.403Z,50.51
2022-10-09T15:27:01.242Z,50.91
2022-10-09T15:33:01.795Z,50.90
2022-10-09T15:35:30.892Z,51.43
2022-10-09T15:38:02.814Z,50.96
2022-10-09T15:40:44.940Z,50.22
2022-10-09T15:43:38.968Z,50.73
2022-10-09T16:01:12.977Z,51.02
2022-10-09T16:04:48.001Z,51.28
2022-10-09T16:07:14.720Z,51.58
2022-10-09T16:09:52.682Z,52.30
2022-10-09T16:12:21.811Z,52.12
2022-10-09T16:14:48.286Z,52.65
2022-10-09T16:17:17.662Z,53.00
2022-10-09T16:20:02.918Z,53.46
2022-10-09T16:27:56.214Z,54.96
2022-10-09T16:31:05.485Z,55.22
2022-10-09T16:33:37.785Z,55.98
2022-10-09T16:39:34.318Z,56.43
2022-10-09T16:46:46.985Z,57.91
2022-10-09T16:49:37.834Z,58.38
2022-10-09T16:55:03.148Z,59.88
2022-10-09T16:57:29.687Z,60.60
2022-10-09T16:59:56.442Z,61.22
2022-10-09T17:02:49.684Z,61.48
2022-10-09T17:05:28.866Z,62.75
2022-10-09T17:07:56.351Z,63.35
2022-10-09T17:13:03.208Z,64.48
2022-10-09T17:15:29.861Z,64.90
2022-10-09T17:18:11.410Z,65.78
2022-10-09T17:20:38.811Z,66.13
2022-10-09T17:23:16.140Z,66.79
2022-10-09T17:25:44.038Z,66.81
2022-10-09T17:28:19.767Z,67.61
2022-10-09T17:30:46.217Z,67.78
2022-10-09T17:34:21.474Z,67.97
2022-10-09T17:36:51.796Z,68.70
2022-10-09T17:39:18.311Z,68.96
2022-10-09T17:41:47.603Z,69.20
2022-10-09T17:44:23.310Z,69.56
2022-10-09T17:47:10.414Z,69.67
2022-10-09T17:49:37.045Z,69.97
2022-10-09T17:52:03.811Z,70.29
2022-10-09T17:54:33.458Z,71.08
2022-10-09T17:57:13.390Z,71.38
2022-10-09T17:59:40.035Z,71.53
2022-10-09T18:02:06.497Z,71.79
2022-10-09T18:04:32.969Z,71.97
2022-10-09T18:07:14.227Z,72.30
2022-10-09T18:09:40.709Z,72.38
2022-10-09T18:12:07.153Z,72.17
2022-10-09T18:14:39.386Z,72.71
2022-10-09T18:17:06.057Z,72.71
2022-10-09T18:19:35.491Z,72.70
2022-10-09T18:22:01.915Z,72.53
2022-10-09T18:24:28.557Z,72.55
2022-10-09T18:26:54.984Z,72.81
2022-10-09T18:29:22.601Z,73.19
2022-10-09T18:31:50.525Z,73.50
2022-10-09T18:34:17.074Z,73.79
2022-10-09T18:36:43.453Z,74.00
2022-10-09T18:39:14.519Z,74.19
2022-10-09T18:41:41.356Z,74.31
2022-10-09T18:44:12.779Z,74.15
2022-10-09T18:46:42.576Z,74.42
2022-10-09T18:49:11.810Z,74.69
2022-10-09T18:51:40.777Z,74.80
2022-10-09T18:54:08.329Z,74.70
2022-10-09T18:56:36.654Z,74.98
2022-10-09T18:59:10.470Z,75.08
2022-10-09T19:01:36.999Z,75.34
2022-10-09T19:04:13.003Z,75.63
2022-10-09T19:06:39.553Z,75.50
2022-10-09T19:09:06.549Z,75.45
2022-10-09T19:11:34.187Z,75.49
2022-10-09T19:14:00.996Z,75.38
2022-10-09T19:16:33.048Z,74.91
2022-10-09T19:19:00.015Z,75.17
2022-10-09T19:21:26.451Z,75.93
2022-10-09T19:23:53.903Z,75.50
2022-10-09T19:26:22.007Z,75.70
2022-10-09T19:28:48.511Z,76.03
2022-10-09T19:31:16.437Z,75.94
2022-10-09T19:33:43.102Z,76.02
2022-10-09T19:36:12.647Z,76.05
2022-10-09T19:38:39.424Z,76.84
2022-10-09T19:41:08.552Z,76.58
2022-10-09T19:43:36.557Z,76.35
2022-10-09T19:46:18.014Z,76.50
2022-10-09T19:48:45.763Z,76.66
2022-10-09T19:51:26.393Z,76.31
2022-10-09T19:53:53.679Z,76.36
2022-10-09T19:56:26.350Z,76.25
2022-10-09T19:58:54.481Z,75.86
2022-10-09T20:01:24.078Z,76.59
2022-10-09T20:04:00.211Z,76.65
2022-10-09T20:06:27.877Z,76.82
2022-10-09T20:08:54.281Z,76.63
2022-10-09T20:11:21.180Z,77.09
2022-10-09T20:13:53.454Z,76.62
2022-10-09T20:16:22.909Z,76.77
2022-10-09T20:18:49.954Z,76.99
2022-10-09T20:21:18.038Z,77.30
2022-10-09T20:23:45.183Z,77.33
2022-10-09T20:26:18.435Z,77.73
2022-10-09T20:28:46.173Z,77.54
2022-10-09T20:31:17.979Z,77.78
2022-10-09T20:33:45.955Z,77.50
2022-10-09T20:36:26.159Z,77.62
2022-10-09T20:38:58.384Z,77.51
2022-10-09T20:41:25.998Z,77.64
2022-10-09T20:43:53.907Z,77.51
2022-10-09T20:46:21.783Z,77.31
2022-10-09T20:48:48.593Z,77.91
2022-10-09T20:51:15.525Z,77.64
2022-10-09T20:53:42.043Z,78.03
2022-10-09T20:56:11.584Z,78.31
2022-10-09T20:58:39.106Z,78.11
2022-10-09T21:01:10.407Z,78.22
2022-10-09T21:03:38.238Z,77.96
2022-10-09T21:06:11.300Z,77.24
2022-10-09T21:08:38.833Z,77.97
2022-10-09T21:11:11.174Z,77.53
2022-10-09T21:13:38.911Z,77.55
2022-10-09T21:16:11.550Z,77.65
2022-10-09T21:18:39.168Z,77.30
2022-10-09T21:21:07.892Z,78.12
2022-10-09T21:23:35.333Z,77.94
2022-10-09T21:26:02.452Z,78.13
2022-10-09T21:28:29.336Z,78.53
2022-10-09T21:30:55.884Z,78.56
2022-10-09T21:33:22.290Z,78.87
2022-10-09T21:35:51.267Z,78.90
2022-10-09T21:38:19.918Z,78.47
2022-10-09T21:40:46.994Z,78.68
2022-10-09T21:43:13.496Z,78.76
2022-10-09T21:45:40.527Z,78.75
2022-10-09T21:48:07.049Z,78.07
2022-10-09T21:50:34.476Z,78.48
2022-10-09T21:53:00.864Z,78.34
2022-10-09T21:55:27.471Z,78.39
2022-10-09T21:57:54.426Z,78.07
2022-10-09T22:00:21.499Z,78.18
2022-10-09T22:02:48.072Z,78.23
2022-10-09T22:05:15.378Z,78.38
2022-10-09T22:07:41.803Z,78.45
2022-10-09T22:10:08.714Z,79.18
2022-10-09T22:12:35.165Z,79.32
2022-10-09T22:15:01.763Z,79.13
2022-10-09T22:17:28.296Z,79.20
2022-10-09T22:19:54.863Z,79.47
2022-10-09T22:22:23.696Z,79.28
2022-10-09T22:24:51.108Z,79.96
2022-10-09T22:27:18.864Z,79.59
2022-10-09T22:29:45.304Z,79.37
2022-10-09T22:32:11.965Z,79.52
2022-10-09T22:34:38.525Z,79.53
2022-10-09T22:37:05.024Z,79.10
2022-10-09T22:39:31.643Z,79.21
2022-10-09T22:41:58.008Z,79.42
2022-10-09T22:44:24.435Z,79.41
2022-10-09T22:46:51.182Z,79.36
2022-10-09T22:49:18.204Z,79.23
2022-10-09T22:51:45.377Z,79.69
2022-10-09T22:54:13.191Z,79.64
2022-10-09T22:56:43.553Z,79.77
2022-10-09T22:59:12.105Z,79.52
2022-10-09T23:01:54.935Z,79.72
2022-10-09T23:04:22.644Z,79.53
2022-10-09T23:06:52.487Z,79.63
2022-10-09T23:09:19.649Z,79.56
2022-10-09T23:11:46.139Z,79.96
2022-10-09T23:14:13.245Z,79.96
2022-10-09T23:16:40.215Z,79.81
2022-10-09T23:19:07.468Z,79.95
2022-10-09T23:21:35.265Z,80.11
2022-10-09T23:24:01.762Z,80.46
2022-10-09T23:26:30.694Z,80.38
2022-10-09T23:29:02.548Z,80.43
2022-10-09T23:31:29.602Z,80.18
2022-10-09T23:33:56.722Z,80.21
2022-10-09T23:36:25.345Z,80.34
2022-10-09T23:38:52.104Z,80.22
2022-10-09T23:41:21.196Z,80.51
2022-10-09T23:43:48.478Z,80.46
2022-10-09T23:46:20.211Z,80.31
2022-10-09T23:48:47.917Z,80.33
2022-10-09T23:51:15.175Z,80.43
2022-10-09T23:53:42.154Z,80.88
2022-10-09T23:56:38.784Z,81.11
2022-10-09T23:59:06.249Z,81.09
